Terminal Aerodrome Forecast
Issued by NWS Paducah, KY

Home | Current Version | Previous Version | Text Only | Print | Product List | Glossary On
Versions: 1 2 3 4 5 6 7 8 9 10 11 12 13 14 15 16 17 18 19 20 21
000
FTUS43 KPAH 290520
TAFEVV
TAF
KEVV 290520Z 2906/3006 22003KT P6SM FEW150 SCT250
      TEMPO 2909/2913 00000KT 5SM BR
     FM291500 25005KT P6SM FEW025
     FM291700 29006KT P6SM SCT035
     FM292300 33007KT P6SM FEW040=

USA.gov is the U.S. government's official web portal to all federal, state and local government web resources and services.